createdAt,value
2023-04-11T00:00:35.277Z,0.73
2023-04-11T00:03:02.635Z,1.08
2023-04-11T00:05:33.045Z,0.57
2023-04-11T00:08:00.640Z,1.10
2023-04-11T00:10:30.296Z,0.50
2023-04-11T00:12:57.444Z,0.73
2023-04-11T00:15:25.013Z,0.60
2023-04-11T00:17:53.512Z,0.65
2023-04-11T00:20:20.900Z,2.05
2023-04-11T00:22:48.051Z,1.10
2023-04-11T00:25:15.754Z,0.75
2023-04-11T00:27:42.855Z,0.70
2023-04-11T00:30:10.168Z,0.55
2023-04-11T00:32:37.326Z,0.80
2023-04-11T00:35:08.623Z,0.90
2023-04-11T00:37:36.204Z,0.50
2023-04-11T00:40:05.734Z,0.80
2023-04-11T00:42:35.338Z,0.90
2023-04-11T00:45:02.467Z,0.80
2023-04-11T00:47:30.044Z,0.70
2023-04-11T00:49:57.213Z,0.90
2023-04-11T00:52:27.016Z,1.05
2023-04-11T00:54:56.573Z,0.85
2023-04-11T00:57:25.962Z,0.80
2023-04-11T00:59:53.146Z,0.70
2023-04-11T01:02:20.330Z,1.00
2023-04-11T01:04:47.676Z,0.90
2023-04-11T01:07:14.915Z,1.42
2023-04-11T01:09:42.848Z,1.25
2023-04-11T01:12:11.512Z,0.68
2023-04-11T01:14:39.195Z,1.40
2023-04-11T01:17:08.023Z,1.00
2023-04-11T01:19:35.321Z,1.00
2023-04-11T01:22:04.907Z,0.90
2023-04-11T01:24:31.732Z,0.98
2023-04-11T01:26:58.512Z,1.02
2023-04-11T01:29:27.785Z,1.25
2023-04-11T01:31:54.525Z,0.93
2023-04-11T01:34:28.363Z,1.00
2023-04-11T01:36:58.279Z,1.10
2023-04-11T01:39:27.214Z,1.67
2023-04-11T01:42:00.928Z,0.77
2023-04-11T01:44:28.426Z,1.33
2023-04-11T01:46:55.420Z,0.90
2023-04-11T01:49:24.497Z,1.10
2023-04-11T01:51:51.540Z,0.90
2023-04-11T01:54:20.440Z,1.15
2023-04-11T01:56:47.407Z,1.30
2023-04-11T01:59:14.165Z,1.10
2023-04-11T02:01:43.720Z,0.90
2023-04-11T02:04:10.934Z,0.88
2023-04-11T02:06:38.610Z,1.10
2023-04-11T02:09:05.381Z,1.52
2023-04-11T02:11:32.109Z,1.45
2023-04-11T02:13:59.679Z,1.10
2023-04-11T02:16:29.809Z,1.15
2023-04-11T02:18:57.394Z,1.00
2023-04-11T02:21:24.200Z,1.52
2023-04-11T02:23:50.950Z,1.50
2023-04-11T02:26:17.646Z,1.25
2023-04-11T02:28:44.474Z,0.95
2023-04-11T02:31:11.444Z,1.73
2023-04-11T02:33:38.308Z,1.27
2023-04-11T02:36:07.677Z,1.60
2023-04-11T02:38:34.395Z,1.70
2023-04-11T02:41:01.126Z,1.50
2023-04-11T02:43:27.833Z,2.17
2023-04-11T02:46:09.564Z,1.63
2023-04-11T02:48:39.089Z,2.10
2023-04-11T02:51:06.144Z,1.58
2023-04-11T02:53:32.826Z,1.73
2023-04-11T02:55:59.487Z,1.52
2023-04-11T02:58:28.836Z,1.65
2023-04-11T03:00:57.685Z,1.90
2023-04-11T03:03:24.484Z,1.88
2023-04-11T03:05:51.266Z,1.88
2023-04-11T03:08:20.412Z,1.98
2023-04-11T03:10:47.068Z,1.93
2023-04-11T03:13:13.802Z,2.20
2023-04-11T03:15:40.499Z,2.25
2023-04-11T03:18:07.302Z,2.47
2023-04-11T03:20:34.051Z,2.28
2023-04-11T03:23:00.968Z,2.28
2023-04-11T03:25:28.180Z,1.73
2023-04-11T03:27:54.918Z,2.00
2023-04-11T03:30:21.623Z,2.00
2023-04-11T03:32:48.584Z,2.17
2023-04-11T03:35:18.696Z,1.90
2023-04-11T03:37:52.702Z,2.00
2023-04-11T03:40:21.685Z,2.05
2023-04-11T03:42:49.355Z,2.45
2023-04-11T03:45:16.399Z,1.60
2023-04-11T03:47:43.417Z,1.88
2023-04-11T03:50:10.653Z,1.98
2023-04-11T03:52:41.858Z,1.83
2023-04-11T03:55:13.369Z,2.10
2023-04-11T03:57:42.218Z,2.17
2023-04-11T04:00:10.073Z,2.17
2023-04-11T04:02:37.262Z,2.10
2023-04-11T04:05:06.943Z,2.22
2023-04-11T04:07:35.258Z,2.08
2023-04-11T04:10:02.117Z,1.92
2023-04-11T04:12:28.818Z,1.80
2023-04-11T04:14:55.548Z,1.98
2023-04-11T04:17:24.977Z,1.90
2023-04-11T04:19:51.735Z,2.17
2023-04-11T04:22:18.598Z,1.75
2023-04-11T04:24:48.035Z,1.85
2023-04-11T04:27:18.057Z,1.90
2023-04-11T04:32:23.146Z,2.08
2023-04-11T04:34:58.596Z,2.25
2023-04-11T04:37:28.463Z,2.08
2023-04-11T04:39:57.600Z,1.90
2023-04-11T04:42:26.089Z,1.90
2023-04-11T04:44:54.245Z,2.03
2023-04-11T04:47:25.840Z,2.05
2023-04-11T04:49:56.464Z,2.17
2023-04-11T04:52:29.742Z,2.22
2023-04-11T04:54:58.968Z,2.35
2023-04-11T04:57:29.669Z,2.15
2023-04-11T04:59:57.548Z,1.98
2023-04-11T05:02:27.767Z,2.03
2023-04-11T05:04:55.056Z,1.88
2023-04-11T05:07:21.849Z,2.38
2023-04-11T05:09:51.089Z,2.33
2023-04-11T05:12:21.642Z,2.10
2023-04-11T05:14:48.285Z,1.90
2023-04-11T05:17:16.260Z,2.40
2023-04-11T05:19:42.948Z,2.42
2023-04-11T05:22:09.592Z,1.92
2023-04-11T05:24:36.368Z,2.10
2023-04-11T05:27:03.039Z,2.63
2023-04-11T05:29:30.015Z,2.20
2023-04-11T05:31:56.696Z,1.80
2023-04-11T05:34:23.378Z,1.63
2023-04-11T05:36:52.759Z,3.85
2023-04-11T05:39:19.430Z,1.80
2023-04-11T05:41:46.221Z,1.85
2023-04-11T05:44:12.914Z,2.42
2023-04-11T05:46:39.593Z,2.22
2023-04-11T05:49:06.281Z,2.60
2023-04-11T05:51:32.971Z,2.03
2023-04-11T05:53:59.610Z,2.78
2023-04-11T05:56:28.434Z,2.00
2023-04-11T05:58:57.392Z,2.60
2023-04-11T06:01:30.377Z,2.05
2023-04-11T06:03:59.701Z,2.15
2023-04-11T06:06:27.460Z,2.53
2023-04-11T06:08:54.443Z,2.00
2023-04-11T06:11:22.251Z,1.92
2023-04-11T06:13:51.372Z,2.88
2023-04-11T06:16:18.162Z,2.13
2023-04-11T06:18:44.853Z,2.00
2023-04-11T06:21:11.506Z,2.45
2023-04-11T06:23:38.145Z,2.20
2023-04-11T06:26:04.984Z,2.20
2023-04-11T06:28:33.909Z,2.17
2023-04-11T06:31:00.703Z,2.45
2023-04-11T06:33:27.408Z,1.85
2023-04-11T06:35:59.104Z,1.90
2023-04-11T06:38:28.286Z,1.90
2023-04-11T06:40:56.309Z,2.65
2023-04-11T06:43:23.015Z,2.63
2023-04-11T06:45:49.715Z,1.75
2023-04-11T06:48:20.387Z,2.03
2023-04-11T06:50:48.661Z,3.53
2023-04-11T06:53:17.713Z,1.90
2023-04-11T06:55:48.654Z,2.60
2023-04-11T06:58:17.815Z,2.50
2023-04-11T07:00:44.520Z,2.25
2023-04-11T07:03:13.921Z,2.13
2023-04-11T07:05:43.201Z,2.20
2023-04-11T07:08:10.013Z,2.03
2023-04-11T07:10:36.709Z,2.67
2023-04-11T07:13:06.375Z,2.58
2023-04-11T07:15:33.064Z,2.22
2023-04-11T07:17:59.965Z,2.30
2023-04-11T07:20:27.362Z,2.10
2023-04-11T07:22:56.540Z,2.30
2023-04-11T07:25:27.128Z,1.80
2023-04-11T07:27:55.977Z,2.55
2023-04-11T07:30:23.122Z,2.20
2023-04-11T07:32:52.041Z,2.60
2023-04-11T07:35:18.785Z,2.80
2023-04-11T07:37:45.572Z,1.98
2023-04-11T07:40:14.381Z,2.20
2023-04-11T07:42:43.659Z,2.33
2023-04-11T07:45:10.641Z,2.13
2023-04-11T07:47:37.463Z,2.30
2023-04-11T07:50:07.346Z,2.15
2023-04-11T07:52:36.580Z,1.77
2023-04-11T07:55:06.420Z,2.42
2023-04-11T07:57:33.116Z,1.80
2023-04-11T08:00:00.032Z,2.35
2023-04-11T08:02:26.861Z,2.22
2023-04-11T08:04:56.063Z,2.00
2023-04-11T08:07:22.798Z,1.63
2023-04-11T08:09:49.605Z,1.98
2023-04-11T08:12:16.647Z,2.00
2023-04-11T08:14:43.298Z,2.72
2023-04-11T08:17:27.232Z,1.88
2023-04-11T08:19:57.825Z,2.15
2023-04-11T08:24:54.360Z,2.03
2023-04-11T08:29:48.160Z,1.80
2023-04-11T08:32:14.910Z,2.05
2023-04-11T08:34:41.596Z,1.95
2023-04-11T08:37:08.768Z,3.00
2023-04-11T08:39:36.162Z,1.75
2023-04-11T08:42:05.772Z,1.90
2023-04-11T08:44:36.958Z,1.67
2023-04-11T08:47:05.332Z,1.80
2023-04-11T08:49:31.998Z,1.67
2023-04-11T08:51:58.955Z,1.92
2023-04-11T08:54:25.793Z,1.30
2023-04-11T08:56:52.490Z,1.70
2023-04-11T08:59:21.666Z,1.58
2023-04-11T09:01:51.384Z,1.52
2023-04-11T09:04:18.374Z,1.50
2023-04-11T09:07:00.442Z,1.75
2023-04-11T09:09:34.615Z,0.93
2023-04-11T09:12:02.590Z,1.40
2023-04-11T09:14:30.265Z,1.40
2023-04-11T09:16:59.698Z,1.38
2023-04-11T09:19:31.477Z,1.27
2023-04-11T09:22:05.019Z,1.55
2023-04-11T09:24:33.949Z,1.25
2023-04-11T09:27:16.517Z,1.50
2023-04-11T09:29:47.637Z,1.45
2023-04-11T09:32:27.401Z,1.30
2023-04-11T09:37:50.263Z,1.25
2023-04-11T09:40:19.229Z,1.42
2023-04-11T09:42:48.037Z,1.73
2023-04-11T09:45:19.082Z,1.77
2023-04-11T09:47:47.308Z,1.63
2023-04-11T09:50:14.664Z,1.17
2023-04-11T09:52:45.640Z,1.40
2023-04-11T09:55:16.262Z,1.60
2023-04-11T09:57:46.421Z,1.15
2023-04-11T10:00:17.111Z,2.63
2023-04-11T10:02:45.872Z,2.60
2023-04-11T10:05:14.042Z,1.10
2023-04-11T10:07:51.639Z,1.25
2023-04-11T10:10:25.308Z,2.33
2023-04-11T10:12:54.891Z,1.63
2023-04-11T10:15:22.448Z,1.60
2023-04-11T10:18:12.497Z,1.67
2023-04-11T10:20:46.275Z,1.40
2023-04-11T10:23:16.612Z,1.40
2023-04-11T10:25:59.967Z,1.67
2023-04-11T10:28:33.692Z,1.52
2023-04-11T10:31:13.390Z,1.42
2023-04-11T10:36:11.515Z,1.45
2023-04-11T10:38:44.464Z,1.40
2023-04-11T10:41:25.623Z,1.50
2023-04-11T10:43:56.092Z,2.00
2023-04-11T10:46:26.613Z,1.30
2023-04-11T10:49:04.186Z,1.58
2023-04-11T10:51:32.720Z,2.00
2023-04-11T10:54:00.692Z,1.95
2023-04-11T10:56:52.451Z,2.15
2023-04-11T10:59:34.295Z,1.52
2023-04-11T11:02:02.258Z,2.08
2023-04-11T11:04:39.393Z,1.33
2023-04-11T11:07:13.246Z,1.75
2023-04-11T11:09:39.961Z,1.50
2023-04-11T11:12:07.544Z,1.70
2023-04-11T11:14:37.003Z,1.55
2023-04-11T11:17:04.345Z,1.75
2023-04-11T11:19:31.806Z,1.42
2023-04-11T11:22:03.802Z,1.90
2023-04-11T11:24:31.163Z,1.70
2023-04-11T11:26:58.698Z,1.20
2023-04-11T11:29:38.174Z,1.80
2023-04-11T11:32:06.347Z,1.40
2023-04-11T11:34:36.026Z,1.40
2023-04-11T11:37:06.471Z,1.35
2023-04-11T11:39:34.184Z,1.73
2023-04-11T11:42:01.663Z,1.45
2023-04-11T11:44:29.995Z,1.52
2023-04-11T11:47:07.395Z,1.25
2023-04-11T11:50:03.938Z,1.50
2023-04-11T11:52:44.419Z,1.85
2023-04-11T11:55:20.060Z,1.50
2023-04-11T11:57:47.953Z,1.40
2023-04-11T12:00:24.904Z,1.48
2023-04-11T12:02:56.240Z,1.70
2023-04-11T12:05:25.333Z,1.60
2023-04-11T12:07:59.394Z,1.48
2023-04-11T12:10:36.826Z,1.45
2023-04-11T12:13:18.980Z,1.23
2023-04-11T12:15:55.909Z,1.38
2023-04-11T12:18:29.447Z,1.10
2023-04-11T12:20:56.223Z,1.40
2023-04-11T12:23:23.187Z,1.25
2023-04-11T12:25:49.916Z,1.17
2023-04-11T12:28:21.469Z,1.52
2023-04-11T12:30:48.251Z,1.65
2023-04-11T12:33:14.940Z,3.17
2023-04-11T12:35:41.900Z,1.77
2023-04-11T12:38:09.179Z,1.60
2023-04-11T12:40:39.249Z,2.03
2023-04-11T12:43:06.014Z,1.35
2023-04-11T12:45:34.899Z,1.25
2023-04-11T12:48:01.700Z,1.53
2023-04-11T12:50:28.509Z,1.60
2023-04-11T12:52:56.318Z,1.20
2023-04-11T12:55:23.471Z,1.50
2023-04-11T12:57:50.294Z,2.08
2023-04-11T13:00:17.452Z,0.98
2023-04-11T13:02:46.931Z,1.33
2023-04-11T13:07:46.537Z,1.43
2023-04-11T13:10:15.671Z,1.40
2023-04-11T13:12:45.724Z,1.58
2023-04-11T13:15:13.880Z,1.20
2023-04-11T13:17:40.781Z,1.40
2023-04-11T13:20:10.619Z,1.30
2023-04-11T13:22:38.443Z,1.42
2023-04-11T13:25:06.033Z,0.90
2023-04-11T13:27:33.190Z,1.80
2023-04-11T13:30:00.009Z,1.10
2023-04-11T13:32:26.859Z,1.55
2023-04-11T13:34:53.663Z,1.60
2023-04-11T13:37:20.561Z,1.35
2023-04-11T13:39:47.298Z,1.88
2023-04-11T13:42:13.946Z,1.38
2023-04-11T13:44:45.326Z,1.00
2023-04-11T13:47:12.024Z,1.48
2023-04-11T13:49:41.175Z,1.13
2023-04-11T13:52:07.818Z,1.75
2023-04-11T13:54:34.536Z,1.45
2023-04-11T13:57:03.378Z,1.38
2023-04-11T13:59:32.309Z,1.17
2023-04-11T14:02:00.207Z,1.70
2023-04-11T14:04:27.526Z,1.25
2023-04-11T14:06:55.350Z,1.27
2023-04-11T14:09:22.101Z,1.20
2023-04-11T14:11:51.272Z,1.30
2023-04-11T14:14:17.986Z,1.50
2023-04-11T14:16:44.767Z,1.50
2023-04-11T14:19:11.513Z,1.25
2023-04-11T14:21:38.274Z,1.30
2023-04-11T14:24:05.730Z,1.35
2023-04-11T14:26:32.544Z,1.40
2023-04-11T14:29:03.161Z,1.65
2023-04-11T14:31:30.544Z,1.60
2023-04-11T14:33:57.643Z,1.40
2023-04-11T14:36:24.606Z,0.95
2023-04-11T14:38:52.824Z,1.25
2023-04-11T14:41:19.508Z,2.67
2023-04-11T14:43:48.601Z,1.33
2023-04-11T14:46:15.467Z,0.90
2023-04-11T14:48:45.375Z,1.48
2023-04-11T14:51:12.706Z,1.88
2023-04-11T14:53:43.987Z,1.10
2023-04-11T14:56:10.806Z,1.50
2023-04-11T14:58:37.615Z,1.60
2023-04-11T15:01:04.813Z,1.35
2023-04-11T15:03:31.657Z,1.25
2023-04-11T15:06:00.888Z,1.40
2023-04-11T15:08:27.601Z,1.17
2023-04-11T15:10:57.203Z,1.60
2023-04-11T15:15:51.425Z,1.42
2023-04-11T15:18:22.678Z,1.35
2023-04-11T15:20:49.988Z,1.38
2023-04-11T15:23:17.662Z,1.55
2023-04-11T15:25:44.346Z,1.50
2023-04-11T15:28:13.822Z,1.90
2023-04-11T15:33:15.928Z,1.85
2023-04-11T15:35:43.254Z,1.63
2023-04-11T15:38:11.470Z,1.65
2023-04-11T15:40:38.644Z,1.65
2023-04-11T15:43:06.421Z,2.33
2023-04-11T15:45:35.414Z,1.35
2023-04-11T15:48:03.257Z,1.40
2023-04-11T15:50:31.116Z,1.48
2023-04-11T15:52:59.208Z,1.50
2023-04-11T15:55:26.407Z,1.80
2023-04-11T15:57:53.684Z,1.63
2023-04-11T16:00:22.407Z,1.67
2023-04-11T16:02:52.552Z,1.80
2023-04-11T16:05:22.688Z,1.40
2023-04-11T16:07:52.129Z,1.48
2023-04-11T16:10:21.500Z,1.73
2023-04-11T16:12:48.556Z,1.42
2023-04-11T16:15:15.393Z,1.40
2023-04-11T16:17:42.569Z,1.05
2023-04-11T16:20:12.044Z,1.50
2023-04-11T16:25:07.042Z,1.27
2023-04-11T16:27:34.191Z,1.13
2023-04-11T16:30:03.449Z,1.00
2023-04-11T16:32:33.235Z,1.25
2023-04-11T16:37:27.663Z,1.35
2023-04-11T16:39:57.860Z,1.05
2023-04-11T16:42:24.743Z,1.50
2023-04-11T16:44:53.934Z,1.13
2023-04-11T16:47:25.951Z,1.23
2023-04-11T16:49:53.356Z,1.17
2023-04-11T16:52:20.045Z,1.27
2023-04-11T16:54:46.880Z,2.00
2023-04-11T16:57:18.405Z,1.55
2023-04-11T16:59:45.977Z,1.30
2023-04-11T17:02:15.022Z,0.88
2023-04-11T17:04:41.905Z,1.17
2023-04-11T17:07:12.251Z,1.50
2023-04-11T17:09:41.475Z,1.20
2023-04-11T17:12:08.145Z,1.45
2023-04-11T17:14:35.622Z,1.17
2023-04-11T17:17:02.883Z,1.80
2023-04-11T17:19:29.760Z,0.93
2023-04-11T17:21:58.961Z,1.50
2023-04-11T17:24:25.730Z,1.23
2023-04-11T17:26:55.495Z,1.50
2023-04-11T17:29:22.386Z,1.65
2023-04-11T17:31:52.100Z,1.27
2023-04-11T17:34:18.819Z,1.02
2023-04-11T17:36:45.856Z,1.20
2023-04-11T17:39:17.474Z,1.40
2023-04-11T17:41:47.118Z,1.30
2023-04-11T17:44:13.993Z,1.48
2023-04-11T17:46:41.224Z,1.30
2023-04-11T17:49:08.031Z,1.20
2023-04-11T17:51:38.737Z,1.75
2023-04-11T17:54:10.238Z,1.48
2023-04-11T17:56:37.113Z,1.35
2023-04-11T17:59:03.801Z,1.40
2023-04-11T18:01:32.469Z,1.52
2023-04-11T18:04:01.337Z,1.30
2023-04-11T18:06:28.755Z,1.50
2023-04-11T18:08:57.878Z,1.85
2023-04-11T18:11:26.717Z,1.50
2023-04-11T18:13:53.665Z,1.17
2023-04-11T18:16:23.056Z,1.40
2023-04-11T18:18:49.769Z,1.63
2023-04-11T18:21:17.482Z,1.67
2023-04-11T18:23:46.787Z,1.48
2023-04-11T18:26:16.356Z,1.25
2023-04-11T18:28:43.074Z,2.00
2023-04-11T18:31:10.225Z,2.05
2023-04-11T18:33:40.480Z,1.65
2023-04-11T18:36:09.074Z,1.80
2023-04-11T18:38:35.863Z,2.25
2023-04-11T18:41:06.740Z,1.90
2023-04-11T18:43:34.380Z,2.20
2023-04-11T18:46:03.584Z,2.20
2023-04-11T18:48:31.601Z,2.00
2023-04-11T18:50:59.621Z,2.33
2023-04-11T18:53:29.991Z,2.28
2023-04-11T18:56:02.867Z,2.58
2023-04-11T18:58:34.190Z,3.10
2023-04-11T19:01:14.038Z,2.75
2023-04-11T19:03:45.667Z,3.30
2023-04-11T19:06:13.214Z,3.53
2023-04-11T19:08:40.126Z,3.13
2023-04-11T19:11:09.009Z,3.60
2023-04-11T19:13:35.781Z,3.63
2023-04-11T19:16:02.637Z,3.78
2023-04-11T19:18:31.527Z,3.40
2023-04-11T19:20:58.336Z,3.22
2023-04-11T19:23:27.613Z,3.28
2023-04-11T19:25:54.778Z,3.47
2023-04-11T19:28:23.700Z,2.90
2023-04-11T19:30:50.463Z,2.92
2023-04-11T19:33:17.218Z,2.65
2023-04-11T19:35:44.238Z,2.75
2023-04-11T19:38:11.969Z,2.28
2023-04-11T19:40:43.274Z,2.83
2023-04-11T19:43:10.373Z,2.50
2023-04-11T19:45:37.174Z,3.15
2023-04-11T19:48:08.689Z,2.65
2023-04-11T19:50:42.223Z,2.95
2023-04-11T19:53:08.980Z,3.00
2023-04-11T19:55:38.097Z,2.63
2023-04-11T19:58:04.828Z,2.50
2023-04-11T20:00:36.087Z,2.33
2023-04-11T20:03:03.028Z,2.33
2023-04-11T20:05:32.056Z,3.72
2023-04-11T20:07:58.835Z,2.30
2023-04-11T20:10:25.653Z,2.90
2023-04-11T20:12:55.103Z,2.70
2023-04-11T20:15:24.109Z,2.63
2023-04-11T20:17:51.445Z,2.27
2023-04-11T20:20:20.169Z,2.33
2023-04-11T20:22:48.160Z,2.15
2023-04-11T20:25:18.050Z,2.00
2023-04-11T20:30:16.583Z,2.15
2023-04-11T20:32:46.966Z,2.20
2023-04-11T20:35:14.219Z,2.63
2023-04-11T20:37:43.700Z,2.22
2023-04-11T20:40:11.200Z,2.45
2023-04-11T20:42:42.571Z,2.58
2023-04-11T20:45:10.938Z,2.70
2023-04-11T20:47:41.181Z,2.42
2023-04-11T20:50:10.448Z,2.55
2023-04-11T20:52:38.460Z,2.28
2023-04-11T20:55:08.553Z,2.08
2023-04-11T20:57:35.697Z,2.10
2023-04-11T21:00:08.381Z,2.47
2023-04-11T21:02:35.769Z,1.83
2023-04-11T21:05:05.469Z,1.92
2023-04-11T21:07:32.556Z,2.05
2023-04-11T21:10:01.610Z,2.40
2023-04-11T21:12:28.744Z,2.40
2023-04-11T21:14:56.106Z,3.00
2023-04-11T21:17:23.214Z,3.33
2023-04-11T21:19:50.338Z,2.03
2023-04-11T21:22:17.557Z,1.92
2023-04-11T21:24:46.904Z,2.30
2023-04-11T21:27:14.022Z,2.67
2023-04-11T21:29:41.140Z,1.80
2023-04-11T21:32:08.265Z,1.90
2023-04-11T21:34:38.337Z,2.03
2023-04-11T21:37:07.683Z,2.00
2023-04-11T21:39:34.841Z,1.92
2023-04-11T21:42:02.424Z,2.05
2023-04-11T21:44:29.604Z,2.28
2023-04-11T21:46:56.840Z,1.80
2023-04-11T21:49:24.769Z,1.58
2023-04-11T21:51:51.890Z,2.25
2023-04-11T21:54:21.478Z,2.25
2023-04-11T21:56:51.060Z,1.70
2023-04-11T21:59:18.170Z,1.80
2023-04-11T22:01:47.585Z,1.98
2023-04-11T22:04:17.487Z,1.73
2023-04-11T22:06:47.267Z,2.08
2023-04-11T22:09:21.207Z,1.70
2023-04-11T22:11:48.287Z,1.90
2023-04-11T22:14:16.026Z,1.83
2023-04-11T22:16:49.995Z,1.95
2023-04-11T22:19:20.813Z,2.42
2023-04-11T22:21:49.900Z,1.77
2023-04-11T22:24:17.063Z,2.23
2023-04-11T22:26:48.897Z,1.80
2023-04-11T22:29:18.294Z,1.90
2023-04-11T22:31:49.649Z,1.80
2023-04-11T22:34:17.064Z,1.75
2023-04-11T22:36:44.182Z,1.73
2023-04-11T22:39:11.446Z,1.70
2023-04-11T22:41:38.960Z,1.73
2023-04-11T22:44:06.541Z,1.77
2023-04-11T22:46:38.407Z,1.85
2023-04-11T22:49:09.843Z,1.40
2023-04-11T22:51:40.852Z,2.35
2023-04-11T22:54:09.575Z,1.70
2023-04-11T22:56:36.663Z,1.60
2023-04-11T22:59:05.463Z,1.42
2023-04-11T23:01:33.104Z,1.48
2023-04-11T23:04:02.282Z,2.00
2023-04-11T23:06:29.069Z,1.60
2023-04-11T23:08:56.676Z,1.65
2023-04-11T23:11:23.950Z,1.75
2023-04-11T23:13:53.528Z,1.67
2023-04-11T23:16:22.001Z,1.55
2023-04-11T23:18:48.678Z,2.85
2023-04-11T23:21:15.432Z,1.40
2023-04-11T23:23:44.250Z,2.13
2023-04-11T23:26:24.263Z,1.38
2023-04-11T23:28:50.948Z,1.55
2023-04-11T23:31:17.794Z,1.42
2023-04-11T23:33:46.697Z,1.67
2023-04-11T23:36:13.707Z,1.65
2023-04-11T23:38:46.282Z,1.65
2023-04-11T23:41:12.973Z,1.55
2023-04-11T23:43:39.688Z,1.35
2023-04-11T23:46:06.761Z,1.67
2023-04-11T23:48:33.573Z,1.38
2023-04-11T23:51:00.442Z,1.20
2023-04-11T23:53:27.148Z,1.38
2023-04-11T23:55:56.286Z,2.30
2023-04-11T23:58:25.556Z,1.70
